createdAt,value
2023-04-08T00:02:03.992Z,15.68
2023-04-08T00:05:06.787Z,14.73
2023-04-08T00:08:08.912Z,14.52
2023-04-08T00:11:11.494Z,15.75
2023-04-08T00:14:13.747Z,15.05
2023-04-08T00:17:16.809Z,14.43
2023-04-08T00:20:19.021Z,15.57
2023-04-08T00:23:21.619Z,14.82
2023-04-08T00:26:23.814Z,12.77
2023-04-08T00:29:26.330Z,14.02
2023-04-08T00:32:29.409Z,13.57
2023-04-08T00:35:32.964Z,13.95
2023-04-08T00:38:35.273Z,13.52
2023-04-08T00:41:37.723Z,14.73
2023-04-08T00:44:39.927Z,13.85
2023-04-08T00:47:42.619Z,15.07
2023-04-08T00:50:46.122Z,16.10
2023-04-08T00:53:48.704Z,15.52
2023-04-08T00:56:51.048Z,14.87
2023-04-08T00:59:53.711Z,16.73
2023-04-08T01:03:21.065Z,15.55
2023-04-08T01:06:42.706Z,14.52
2023-04-08T01:09:48.644Z,12.65
2023-04-08T01:12:56.662Z,15.70
2023-04-08T01:15:59.407Z,13.68
2023-04-08T01:22:29.802Z,14.48
2023-04-08T01:25:39.193Z,13.38
2023-04-08T01:28:43.948Z,14.65
2023-04-08T01:31:48.095Z,16.45
2023-04-08T01:37:53.943Z,13.88
2023-04-08T01:40:58.351Z,16.05
2023-04-08T01:44:01.779Z,16.65
2023-04-08T01:47:05.434Z,16.02
2023-04-08T01:50:09.510Z,13.43
2023-04-08T01:53:12.751Z,15.02
2023-04-08T01:56:16.476Z,15.57
2023-04-08T01:59:20.884Z,16.35
2023-04-08T02:02:27.128Z,14.40
2023-04-08T02:05:29.697Z,15.32
2023-04-08T02:08:36.102Z,16.62
2023-04-08T02:11:38.585Z,14.87
2023-04-08T02:14:41.221Z,14.23
2023-04-08T02:17:50.429Z,14.05
2023-04-08T02:21:24.313Z,15.00
2023-04-08T02:24:28.398Z,14.70
2023-04-08T02:27:35.417Z,15.02
2023-04-08T02:30:42.378Z,15.48
2023-04-08T02:33:46.059Z,13.75
2023-04-08T02:36:48.817Z,15.52
2023-04-08T02:39:52.250Z,15.98
2023-04-08T02:42:55.703Z,14.70
2023-04-08T02:46:03.281Z,15.68
2023-04-08T02:49:06.214Z,14.52
2023-04-08T02:52:08.451Z,15.93
2023-04-08T02:55:11.161Z,13.68
2023-04-08T02:58:13.421Z,15.77
2023-04-08T03:01:16.473Z,15.30
2023-04-08T03:04:18.724Z,15.40
2023-04-08T03:07:21.252Z,14.40
2023-04-08T03:10:23.594Z,12.95
2023-04-08T03:13:26.319Z,14.65
2023-04-08T03:16:28.729Z,13.93
2023-04-08T03:19:31.185Z,13.43
2023-04-08T03:22:33.953Z,17.00
2023-04-08T03:25:36.404Z,12.15
2023-04-08T03:28:38.581Z,14.52
2023-04-08T03:31:41.482Z,15.27
2023-04-08T03:34:43.851Z,13.93
2023-04-08T03:37:46.944Z,14.20
2023-04-08T03:40:49.205Z,15.93
2023-04-08T03:43:51.691Z,15.52
2023-04-08T03:46:53.896Z,14.15
2023-04-08T03:49:56.379Z,14.82
2023-04-08T03:52:58.642Z,14.75
2023-04-08T03:56:02.762Z,13.30
2023-04-08T03:59:04.918Z,13.18
2023-04-08T04:02:07.753Z,13.77
2023-04-08T04:05:10.322Z,13.93
2023-04-08T04:08:12.659Z,14.50
2023-04-08T04:11:15.157Z,13.18
2023-04-08T04:14:17.291Z,12.98
2023-04-08T04:17:19.866Z,12.85
2023-04-08T04:20:22.104Z,12.02
2023-04-08T04:23:25.814Z,11.07
2023-04-08T04:26:28.030Z,14.13
2023-04-08T04:29:31.969Z,13.13
2023-04-08T04:35:36.652Z,9.95
2023-04-08T04:38:38.936Z,10.98
2023-04-08T04:41:41.392Z,11.02
2023-04-08T04:44:44.618Z,11.70
2023-04-08T04:47:47.127Z,10.52
2023-04-08T04:50:56.721Z,12.05
2023-04-08T04:53:59.280Z,11.45
2023-04-08T04:57:01.572Z,10.27
2023-04-08T05:00:05.440Z,11.02
2023-04-08T05:03:08.300Z,10.75
2023-04-08T05:06:11.448Z,10.20
2023-04-08T05:09:13.690Z,10.90
2023-04-08T05:12:16.272Z,10.60
2023-04-08T05:15:18.490Z,9.52
2023-04-08T05:18:20.981Z,10.65
2023-04-08T05:21:23.965Z,10.05
2023-04-08T05:24:26.399Z,11.02
2023-04-08T05:27:28.632Z,10.27
2023-04-08T05:30:31.438Z,10.98
2023-04-08T05:33:33.672Z,10.70
2023-04-08T05:36:36.256Z,10.15
2023-04-08T05:39:38.418Z,10.45
2023-04-08T05:42:42.690Z,11.75
2023-04-08T05:45:44.870Z,11.07
2023-04-08T05:48:47.347Z,12.63
2023-04-08T05:51:49.548Z,12.00
2023-04-08T05:54:52.016Z,12.52
2023-04-08T05:57:54.219Z,10.55
2023-04-08T06:00:56.811Z,10.40
2023-04-08T06:03:59.743Z,10.70
2023-04-08T06:07:03.078Z,11.07
2023-04-08T06:10:07.209Z,10.23
2023-04-08T06:13:09.461Z,9.35
2023-04-08T06:16:21.154Z,8.40
2023-04-08T06:19:24.750Z,7.65
2023-04-08T06:22:28.190Z,9.25
2023-04-08T06:25:30.521Z,10.73
2023-04-08T06:28:33.063Z,9.23
2023-04-08T06:31:35.491Z,9.50
2023-04-08T06:34:38.329Z,8.83
2023-04-08T06:37:40.573Z,10.23
2023-04-08T06:40:43.109Z,10.90
2023-04-08T06:43:45.524Z,9.18
2023-04-08T06:46:48.011Z,9.20
2023-04-08T06:49:50.421Z,11.07
2023-04-08T06:52:52.916Z,12.00
2023-04-08T06:55:55.541Z,10.35
2023-04-08T06:58:58.022Z,11.43
2023-04-08T07:02:00.514Z,9.38
2023-04-08T07:05:03.142Z,10.25
2023-04-08T07:08:06.453Z,11.68
2023-04-08T07:14:12.274Z,12.50
2023-04-08T07:20:18.369Z,11.57
2023-04-08T07:23:21.164Z,12.32
2023-04-08T07:26:23.473Z,12.57
2023-04-08T07:29:26.090Z,12.60
2023-04-08T07:32:28.747Z,10.45
2023-04-08T07:35:33.641Z,10.45
2023-04-08T07:38:36.414Z,11.82
2023-04-08T07:41:38.894Z,12.27
2023-04-08T07:44:41.313Z,10.57
2023-04-08T07:47:44.289Z,12.37
2023-04-08T07:51:08.303Z,10.37
2023-04-08T07:54:12.437Z,11.60
2023-04-08T07:57:14.872Z,12.20
2023-04-08T08:00:21.610Z,11.15
2023-04-08T08:03:24.391Z,11.75
2023-04-08T08:06:27.873Z,11.63
2023-04-08T08:09:32.086Z,11.40
2023-04-08T08:12:34.408Z,11.27
2023-04-08T08:15:37.055Z,10.40
2023-04-08T08:18:40.532Z,11.98
2023-04-08T08:21:43.087Z,11.70
2023-04-08T08:24:45.318Z,10.38
2023-04-08T08:27:47.861Z,10.43
2023-04-08T08:30:50.859Z,10.65
2023-04-08T08:33:53.495Z,10.43
2023-04-08T08:36:55.950Z,10.95
2023-04-08T08:39:58.460Z,10.63
2023-04-08T08:43:01.406Z,11.70
2023-04-08T08:46:04.180Z,9.65
2023-04-08T08:49:06.551Z,11.15
2023-04-08T08:52:09.906Z,9.93
2023-04-08T08:55:27.629Z,9.75
2023-04-08T08:58:35.330Z,12.73
2023-04-08T09:01:40.566Z,11.17
2023-04-08T09:04:56.774Z,9.77
2023-04-08T09:07:59.019Z,10.63
2023-04-08T09:11:14.878Z,10.85
2023-04-08T09:14:21.956Z,10.65
2023-04-08T09:17:39.610Z,9.82
2023-04-08T09:20:52.611Z,12.30
2023-04-08T09:23:55.191Z,10.75
2023-04-08T09:26:57.665Z,10.07
2023-04-08T09:30:32.205Z,11.97
2023-04-08T09:33:34.368Z,11.73
2023-04-08T09:36:36.904Z,10.75
2023-04-08T09:39:39.094Z,12.10
2023-04-08T09:42:46.009Z,11.73
2023-04-08T09:45:49.394Z,11.73
2023-04-08T09:52:30.180Z,10.50
2023-04-08T09:55:36.477Z,11.77
2023-04-08T09:58:59.416Z,7.87
2023-04-08T10:02:07.947Z,11.23
2023-04-08T10:05:13.410Z,10.35
2023-04-08T10:08:16.339Z,12.23
2023-04-08T10:11:18.951Z,11.35
2023-04-08T10:14:22.200Z,10.10
2023-04-08T10:17:27.577Z,11.05
2023-04-08T10:20:38.822Z,10.60
2023-04-08T10:23:55.730Z,11.18
2023-04-08T10:26:58.089Z,10.43
2023-04-08T10:30:00.582Z,12.00
2023-04-08T10:33:10.515Z,10.23
2023-04-08T10:36:13.369Z,12.85
2023-04-08T10:39:16.811Z,13.13
2023-04-08T10:42:19.328Z,11.85
2023-04-08T10:45:22.208Z,10.77
2023-04-08T10:48:25.444Z,11.18
2023-04-08T10:51:33.727Z,12.52
2023-04-08T10:54:37.085Z,12.13
2023-04-08T10:57:41.322Z,12.53
2023-04-08T11:00:43.809Z,11.57
2023-04-08T11:03:46.294Z,12.07
2023-04-08T11:06:50.190Z,13.67
2023-04-08T11:09:52.368Z,14.20
2023-04-08T11:12:55.881Z,12.30
2023-04-08T11:15:59.543Z,14.20
2023-04-08T11:19:05.169Z,11.88
2023-04-08T11:22:09.400Z,13.05
2023-04-08T11:25:12.033Z,12.32
2023-04-08T11:28:14.882Z,13.27
2023-04-08T11:31:19.771Z,13.18
2023-04-08T11:34:24.635Z,13.68
2023-04-08T11:37:29.442Z,11.38
2023-04-08T11:40:31.964Z,10.70
2023-04-08T11:43:36.596Z,10.77
2023-04-08T11:46:40.846Z,11.75
2023-04-08T11:49:47.417Z,11.98
2023-04-08T11:52:51.025Z,10.13
2023-04-08T11:55:53.510Z,12.20
2023-04-08T11:58:55.814Z,11.30
2023-04-08T12:01:59.945Z,10.65
2023-04-08T12:05:02.682Z,10.77
2023-04-08T12:08:05.307Z,12.23
2023-04-08T12:11:19.246Z,14.48
2023-04-08T12:14:26.774Z,10.82
2023-04-08T12:17:30.815Z,10.35
2023-04-08T12:20:33.061Z,9.48
2023-04-08T12:23:35.614Z,9.15
2023-04-08T12:26:38.050Z,8.77
2023-04-08T12:29:40.552Z,7.73
2023-04-08T12:32:46.248Z,10.63
2023-04-08T12:35:48.847Z,9.60
2023-04-08T12:38:51.357Z,10.70
2023-04-08T12:41:54.368Z,9.98
2023-04-08T12:44:56.566Z,11.02
2023-04-08T12:47:59.121Z,10.93
2023-04-08T12:51:01.385Z,10.90
2023-04-08T12:54:04.762Z,9.27
2023-04-08T12:57:07.117Z,10.55
2023-04-08T13:00:11.326Z,11.05
2023-04-08T13:03:15.854Z,12.50
2023-04-08T13:06:18.469Z,11.05
2023-04-08T13:09:20.860Z,10.10
2023-04-08T13:12:23.703Z,10.50
2023-04-08T13:15:28.234Z,11.68
2023-04-08T13:18:31.062Z,9.48
2023-04-08T13:21:33.266Z,12.60
2023-04-08T13:24:35.796Z,10.27
2023-04-08T13:27:38.157Z,11.70
2023-04-08T13:30:40.811Z,10.63
2023-04-08T13:33:43.114Z,9.73
2023-04-08T13:36:45.593Z,10.50
2023-04-08T13:39:47.779Z,9.98
2023-04-08T13:42:50.237Z,8.75
2023-04-08T13:45:52.504Z,9.60
2023-04-08T13:48:55.259Z,8.43
2023-04-08T13:51:57.416Z,8.10
2023-04-08T13:55:00.721Z,8.38
2023-04-08T13:58:06.653Z,8.10
2023-04-08T14:01:13.884Z,6.70
2023-04-08T14:04:16.332Z,7.32
2023-04-08T14:07:19.835Z,8.45
2023-04-08T14:10:22.404Z,7.03
2023-04-08T14:13:24.740Z,7.70
2023-04-08T14:16:27.989Z,8.98
2023-04-08T14:19:30.374Z,7.68
2023-04-08T14:22:32.883Z,8.63
2023-04-08T14:25:35.194Z,7.97
2023-04-08T14:28:37.862Z,8.35
2023-04-08T14:31:40.065Z,7.72
2023-04-08T14:34:42.513Z,8.65
2023-04-08T14:37:44.751Z,9.18
2023-04-08T14:40:47.279Z,8.23
2023-04-08T14:43:49.492Z,9.30
2023-04-08T14:46:52.113Z,7.72
2023-04-08T14:49:54.377Z,9.02
2023-04-08T14:52:56.840Z,9.15
2023-04-08T14:55:59.534Z,7.75
2023-04-08T14:59:01.951Z,5.87
2023-04-08T15:02:04.423Z,7.32
2023-04-08T15:05:07.365Z,7.00
2023-04-08T15:08:09.492Z,7.28
2023-04-08T15:11:12.038Z,9.30
2023-04-08T15:14:14.265Z,5.75
2023-04-08T15:17:17.080Z,7.18
2023-04-08T15:20:20.183Z,7.10
2023-04-08T15:23:22.716Z,8.40
2023-04-08T15:26:24.992Z,7.47
2023-04-08T15:29:27.414Z,6.62
2023-04-08T15:32:29.978Z,6.53
2023-04-08T15:35:33.251Z,8.73
2023-04-08T15:38:35.686Z,7.68
2023-04-08T15:41:38.131Z,6.90
2023-04-08T15:44:40.932Z,7.93
2023-04-08T15:47:43.424Z,6.80
2023-04-08T15:50:45.932Z,6.90
2023-04-08T15:53:51.536Z,7.73
2023-04-08T15:56:53.810Z,8.38
2023-04-08T15:59:56.297Z,8.25
2023-04-08T16:02:58.765Z,8.50
2023-04-08T16:06:01.735Z,7.70
2023-04-08T16:09:04.109Z,7.10
2023-04-08T16:12:06.616Z,8.07
2023-04-08T16:15:09.165Z,7.30
2023-04-08T16:18:11.793Z,7.67
2023-04-08T16:21:13.981Z,7.62
2023-04-08T16:24:16.502Z,9.63
2023-04-08T16:27:18.674Z,7.45
2023-04-08T16:30:21.267Z,6.25
2023-04-08T16:33:29.729Z,6.85
2023-04-08T16:36:32.164Z,7.37
2023-04-08T16:39:34.291Z,7.68
2023-04-08T16:42:36.814Z,7.55
2023-04-08T16:45:40.340Z,8.13
2023-04-08T16:48:43.926Z,5.85
2023-04-08T16:51:46.442Z,6.45
2023-04-08T16:54:49.011Z,5.20
2023-04-08T16:57:51.212Z,6.78
2023-04-08T17:00:53.844Z,7.50
2023-04-08T17:03:57.228Z,8.35
2023-04-08T17:07:00.159Z,7.97
2023-04-08T17:10:03.523Z,7.47
2023-04-08T17:13:07.125Z,8.02
2023-04-08T17:16:14.412Z,8.80
2023-04-08T17:19:17.881Z,7.47
2023-04-08T17:22:21.463Z,6.78
2023-04-08T17:25:24.551Z,7.47
2023-04-08T17:28:27.030Z,7.47
2023-04-08T17:31:29.932Z,6.70
2023-04-08T17:34:33.078Z,7.18
2023-04-08T17:37:36.275Z,7.37
2023-04-08T17:40:38.782Z,7.62
2023-04-08T17:43:42.459Z,7.32
2023-04-08T17:46:44.627Z,7.37
2023-04-08T17:49:47.096Z,8.43
2023-04-08T17:52:50.291Z,7.25
2023-04-08T17:55:54.706Z,8.68
2023-04-08T17:58:56.925Z,9.30
2023-04-08T18:01:59.616Z,8.25
2023-04-08T18:05:03.271Z,9.00
2023-04-08T18:08:05.616Z,8.98
2023-04-08T18:11:08.283Z,8.65
2023-04-08T18:14:10.484Z,10.13
2023-04-08T18:17:14.454Z,11.45
2023-04-08T18:23:18.847Z,10.93
2023-04-08T18:26:21.462Z,11.07
2023-04-08T18:29:23.926Z,10.85
2023-04-08T18:32:26.241Z,11.23
2023-04-08T18:35:28.958Z,10.83
2023-04-08T18:38:31.319Z,10.65
2023-04-08T18:41:33.772Z,10.20
2023-04-08T18:44:35.966Z,11.80
2023-04-08T18:47:38.398Z,10.50
2023-04-08T18:50:40.718Z,11.90
2023-04-08T18:53:43.784Z,10.70
2023-04-08T18:56:46.001Z,10.73
2023-04-08T18:59:48.547Z,11.27
2023-04-08T19:02:50.998Z,11.55
2023-04-08T19:05:53.657Z,10.35
2023-04-08T19:08:56.012Z,10.68
2023-04-08T19:11:58.504Z,11.10
2023-04-08T19:15:00.823Z,9.68
2023-04-08T19:18:04.121Z,10.98
2023-04-08T19:21:06.360Z,11.12
2023-04-08T19:24:09.276Z,11.18
2023-04-08T19:27:13.898Z,11.48
2023-04-08T19:30:16.521Z,11.10
2023-04-08T19:33:19.475Z,12.37
2023-04-08T19:36:22.060Z,12.35
2023-04-08T19:39:26.711Z,9.63
2023-04-08T19:42:30.635Z,10.05
2023-04-08T19:45:32.782Z,10.93
2023-04-08T19:48:35.729Z,10.25
2023-04-08T19:51:37.975Z,10.60
2023-04-08T19:54:41.397Z,10.60
2023-04-08T19:57:43.671Z,10.60
2023-04-08T20:00:46.326Z,10.10
2023-04-08T20:03:52.628Z,12.37
2023-04-08T20:06:55.068Z,12.15
2023-04-08T20:09:57.749Z,9.93
2023-04-08T20:12:59.965Z,10.88
2023-04-08T20:16:02.761Z,11.88
2023-04-08T20:19:05.071Z,10.48
2023-04-08T20:22:07.792Z,10.93
2023-04-08T20:25:09.989Z,10.73
2023-04-08T20:28:12.793Z,10.07
2023-04-08T20:31:15.992Z,10.50
2023-04-08T20:37:20.519Z,12.32
2023-04-08T20:40:22.946Z,11.10
2023-04-08T20:43:25.128Z,11.00
2023-04-08T20:46:27.680Z,10.55
2023-04-08T20:49:29.865Z,10.57
2023-04-08T20:52:32.625Z,10.20
2023-04-08T20:55:34.849Z,10.40
2023-04-08T20:58:37.301Z,10.45
2023-04-08T21:01:39.769Z,9.70
2023-04-08T21:04:42.666Z,10.73
2023-04-08T21:07:44.964Z,10.80
2023-04-08T21:10:47.634Z,10.88
2023-04-08T21:13:49.791Z,10.63
2023-04-08T21:16:52.428Z,9.65
2023-04-08T21:19:54.628Z,10.70
2023-04-08T21:22:58.905Z,10.07
2023-04-08T21:26:03.296Z,10.50
2023-04-08T21:29:06.285Z,11.10
2023-04-08T21:32:08.601Z,11.68
2023-04-08T21:35:11.245Z,10.15
2023-04-08T21:38:13.477Z,9.73
2023-04-08T21:41:17.187Z,10.60
2023-04-08T21:44:19.455Z,9.95
2023-04-08T21:47:22.091Z,9.43
2023-04-08T21:50:24.636Z,11.27
2023-04-08T21:53:27.161Z,10.80
2023-04-08T21:56:29.417Z,11.43
2023-04-08T21:59:31.946Z,10.50
2023-04-08T22:02:40.658Z,11.02
2023-04-08T22:05:43.228Z,10.45
2023-04-08T22:08:45.764Z,11.07
2023-04-08T22:11:48.315Z,11.37
2023-04-08T22:14:50.630Z,11.77
2023-04-08T22:17:53.179Z,12.10
2023-04-08T22:20:56.010Z,10.77
2023-04-08T22:23:58.419Z,9.38
2023-04-08T22:27:01.094Z,10.20
2023-04-08T22:30:03.988Z,11.15
2023-04-08T22:33:06.177Z,10.77
2023-04-08T22:36:08.698Z,10.43
2023-04-08T22:39:11.015Z,10.98
2023-04-08T22:42:13.499Z,10.85
2023-04-08T22:45:15.736Z,10.07
2023-04-08T22:48:18.217Z,11.20
2023-04-08T22:51:20.934Z,11.20
2023-04-08T22:54:23.412Z,11.75
2023-04-08T22:57:25.728Z,10.90
2023-04-08T23:00:29.482Z,10.88
2023-04-08T23:03:31.741Z,12.37
2023-04-08T23:06:34.209Z,12.05
2023-04-08T23:09:36.462Z,11.75
2023-04-08T23:12:38.955Z,10.35
2023-04-08T23:15:41.648Z,10.98
2023-04-08T23:18:44.186Z,12.52
2023-04-08T23:21:46.455Z,11.63
2023-04-08T23:24:48.922Z,10.88
2023-04-08T23:27:51.243Z,10.20
2023-04-08T23:30:53.696Z,11.98
2023-04-08T23:33:56.175Z,10.50
2023-04-08T23:36:58.597Z,11.33
2023-04-08T23:40:00.902Z,11.02
2023-04-08T23:43:03.427Z,10.77
2023-04-08T23:46:05.638Z,11.40
2023-04-08T23:49:08.154Z,11.70
2023-04-08T23:52:10.512Z,9.55
2023-04-08T23:55:13.095Z,10.57
2023-04-08T23:58:15.586Z,10.85
